Time;durP1;ratioP1;P1;durP2;ratioP2;P2;SDS_P1;SDS_P2;PMS_P1;PMS_P2;Temp;Humidity;BMP_temperature;BMP_pressure;BME280_temperature;BME280_humidity;BME280_pressure;Samples;Min_cycle;Max_cycle;Signal;HPM_P1;HPM_P2
2022/11/17 00:01:25;;;;;;;;;;;19.50;50.20;;;;;;5036620;28;19975;-72
2022/11/17 00:03:51;;;;;;;;;;;19.60;50.20;;;;;;5037790;28;19938;-72
2022/11/17 00:06:19;;;;;;;;;;;19.60;50.10;;;;;;5035161;28;19916;-72
2022/11/17 00:08:44;;;;;;;;;;;19.50;50.00;;;;;;5048907;28;19998;-72
2022/11/17 00:11:10;;;;;;;;;;;19.50;50.10;;;;;;5018277;28;19961;-72
2022/11/17 00:16:20;;;;;;;;;;;19.50;50.10;;;;;;5038914;28;19928;-72
2022/11/17 00:21:29;;;;;;;;;;;19.50;50.00;;;;;;5054075;28;19943;-71
2022/11/17 00:23:55;;;;;;;;;;;19.40;50.00;;;;;;5053393;28;20003;-72
2022/11/17 00:26:22;;;;;;;;;;;19.40;50.10;;;;;;5032859;28;19916;-71
2022/11/17 00:28:54;;;;;;;;;;;19.40;50.10;;;;;;5049042;28;20058;-72
2022/11/17 00:34:03;;;;;;;;;;;19.40;50.10;;;;;;5046973;28;20411;-72
2022/11/17 00:36:29;;;;;;;;;;;19.40;50.00;;;;;;5052243;28;19964;-72
2022/11/17 00:38:55;;;;;;;;;;;19.40;50.20;;;;;;5032878;28;19970;-71
2022/11/17 00:41:20;;;;;;;;;;;19.40;50.10;;;;;;5035625;28;19927;-72
2022/11/17 00:43:46;;;;;;;;;;;19.30;50.00;;;;;;5034141;28;19923;-72
2022/11/17 00:46:11;;;;;;;;;;;19.30;50.00;;;;;;5051935;28;20054;-72
2022/11/17 00:48:37;;;;;;;;;;;19.30;50.00;;;;;;5051370;28;19913;-72
2022/11/17 00:51:03;;;;;;;;;;;19.30;50.00;;;;;;5052384;28;19913;-72
2022/11/17 00:53:28;;;;;;;;;;;19.30;49.90;;;;;;5033124;28;19920;-72
2022/11/17 00:55:54;;;;;;;;;;;19.30;49.90;;;;;;5052405;28;19967;-71
2022/11/17 00:58:19;;;;;;;;;;;19.30;50.00;;;;;;5050539;28;19953;-73
2022/11/17 01:00:47;;;;;;;;;;;19.20;50.00;;;;;;5050285;28;19919;-72
2022/11/17 01:03:12;;;;;;;;;;;19.30;50.00;;;;;;5032319;28;19936;-72
2022/11/17 01:05:37;;;;;;;;;;;19.20;49.90;;;;;;5027948;28;19913;-72
2022/11/17 01:08:03;;;;;;;;;;;19.30;49.80;;;;;;5046961;28;19916;-72
2022/11/17 01:10:28;;;;;;;;;;;19.20;49.80;;;;;;5048971;28;20274;-72
2022/11/17 01:12:54;;;;;;;;;;;19.20;49.80;;;;;;5053847;28;20020;-72
2022/11/17 01:15:19;;;;;;;;;;;19.30;49.90;;;;;;5053825;28;19939;-73
2022/11/17 01:17:45;;;;;;;;;;;19.30;49.80;;;;;;5050444;28;19921;-72
2022/11/17 01:20:10;;;;;;;;;;;19.30;49.70;;;;;;5040303;28;19916;-71
2022/11/17 01:22:36;;;;;;;;;;;19.30;49.70;;;;;;5035723;28;19908;-72
2022/11/17 01:25:01;;;;;;;;;;;19.20;49.60;;;;;;5051887;28;19913;-71
2022/11/17 01:27:26;;;;;;;;;;;19.30;49.70;;;;;;5051322;28;19913;-72
2022/11/17 01:29:52;;;;;;;;;;;19.30;49.60;;;;;;5051397;28;19913;-71
2022/11/17 01:32:17;;;;;;;;;;;19.20;49.50;;;;;;5050477;28;19951;-72
2022/11/17 01:34:43;;;;;;;;;;;19.20;49.50;;;;;;5046227;28;20015;-73
2022/11/17 01:37:17;;;;;;;;;;;19.20;49.40;;;;;;5031146;28;19970;-72
2022/11/17 01:39:43;;;;;;;;;;;19.20;49.40;;;;;;5042433;28;19956;-72
2022/11/17 01:42:16;;;;;;;;;;;19.20;49.50;;;;;;5033594;28;20327;-72
2022/11/17 01:44:47;;;;;;;;;;;19.10;49.50;;;;;;5052151;28;19913;-72
2022/11/17 01:47:14;;;;;;;;;;;19.20;49.50;;;;;;5057459;28;20358;-72
2022/11/17 01:49:39;;;;;;;;;;;19.20;49.40;;;;;;5018186;28;20380;-72
2022/11/17 01:52:05;;;;;;;;;;;19.20;49.30;;;;;;5049831;28;19919;-72
2022/11/17 01:54:30;;;;;;;;;;;19.10;49.20;;;;;;5035274;28;19942;-72
2022/11/17 01:56:57;;;;;;;;;;;19.10;49.30;;;;;;5032535;28;19915;-73
2022/11/17 01:59:22;;;;;;;;;;;19.10;49.30;;;;;;5053267;28;20060;-72
2022/11/17 02:01:57;;;;;;;;;;;19.10;49.40;;;;;;5052523;28;19987;-72
2022/11/17 02:04:22;;;;;;;;;;;19.10;49.20;;;;;;5036134;28;20430;-72
2022/11/17 02:06:47;;;;;;;;;;;19.10;49.20;;;;;;5048898;28;20007;-72
2022/11/17 02:09:13;;;;;;;;;;;19.00;49.30;;;;;;5034478;28;19913;-75
2022/11/17 02:11:38;;;;;;;;;;;19.00;49.30;;;;;;5050585;28;20316;-72
2022/11/17 02:14:04;;;;;;;;;;;19.00;49.30;;;;;;5034656;28;19916;-71
2022/11/17 02:16:29;;;;;;;;;;;19.00;49.10;;;;;;5049954;28;19962;-72
2022/11/17 02:18:55;;;;;;;;;;;19.10;49.20;;;;;;5050777;28;19956;-71
2022/11/17 02:21:39;;;;;;;;;;;19.10;49.00;;;;;;5033538;28;20454;-72
2022/11/17 02:24:05;;;;;;;;;;;19.10;49.00;;;;;;5048346;28;19931;-72
2022/11/17 02:26:30;;;;;;;;;;;19.10;48.90;;;;;;5045858;28;19917;-71
2022/11/17 02:28:59;;;;;;;;;;;19.20;49.10;;;;;;5046602;28;19931;-72
2022/11/17 02:31:26;;;;;;;;;;;19.20;49.20;;;;;;5049747;28;20284;-71
2022/11/17 02:34:04;;;;;;;;;;;19.20;49.10;;;;;;5032143;28;19916;-72
2022/11/17 02:36:35;;;;;;;;;;;19.30;49.20;;;;;;5029951;28;20011;-72
2022/11/17 02:39:08;;;;;;;;;;;19.30;49.00;;;;;;5032531;28;19917;-72
2022/11/17 02:41:41;;;;;;;;;;;19.40;48.80;;;;;;5030198;28;20295;-72
2022/11/17 02:44:12;;;;;;;;;;;19.50;48.80;;;;;;5032660;28;19913;-72
2022/11/17 02:46:54;;;;;;;;;;;19.50;48.70;;;;;;5049267;28;19935;-72
2022/11/17 02:49:30;;;;;;;;;;;19.50;48.60;;;;;;5017330;28;20300;-72
2022/11/17 02:51:56;;;;;;;;;;;19.60;48.50;;;;;;5024803;28;19963;-71
2022/11/17 02:54:21;;;;;;;;;;;19.60;48.30;;;;;;5049754;28;19959;-73
2022/11/17 02:56:47;;;;;;;;;;;19.70;48.30;;;;;;5032511;28;20373;-72
2022/11/17 02:59:13;;;;;;;;;;;19.70;48.00;;;;;;5050308;28;20329;-72
2022/11/17 03:01:54;;;;;;;;;;;19.70;47.80;;;;;;5032295;28;19955;-72
2022/11/17 03:04:22;;;;;;;;;;;19.80;47.70;;;;;;5033895;28;20288;-72
2022/11/17 03:06:50;;;;;;;;;;;19.80;47.50;;;;;;5028648;28;20394;-71
2022/11/17 03:09:42;;;;;;;;;;;19.90;47.70;;;;;;5033193;28;19913;-72
2022/11/17 03:12:09;;;;;;;;;;;19.90;47.30;;;;;;5034451;28;19996;-72
2022/11/17 03:14:43;;;;;;;;;;;19.90;47.30;;;;;;5028836;28;19927;-73
2022/11/17 03:17:29;;;;;;;;;;;19.90;47.20;;;;;;5053513;28;20431;-72
2022/11/17 03:19:56;;;;;;;;;;;19.90;47.20;;;;;;5006413;28;20365;-71
2022/11/17 03:22:23;;;;;;;;;;;19.90;47.20;;;;;;5053543;28;19940;-71
2022/11/17 03:24:50;;;;;;;;;;;19.90;47.10;;;;;;5035987;28;19917;-73
2022/11/17 03:27:23;;;;;;;;;;;19.90;47.20;;;;;;5035514;28;19916;-72
2022/11/17 03:29:49;;;;;;;;;;;19.80;47.20;;;;;;5035038;28;20046;-72
2022/11/17 03:32:15;;;;;;;;;;;19.80;47.10;;;;;;5034662;28;19920;-72
2022/11/17 03:34:41;;;;;;;;;;;19.80;47.10;;;;;;5013259;28;19921;-72
2022/11/17 03:37:07;;;;;;;;;;;19.80;47.10;;;;;;5032564;28;19920;-72
2022/11/17 03:39:33;;;;;;;;;;;19.80;47.10;;;;;;5033090;28;19989;-72
2022/11/17 03:42:01;;;;;;;;;;;19.80;47.10;;;;;;5052345;28;20187;-72
2022/11/17 03:44:26;;;;;;;;;;;19.80;47.10;;;;;;5036222;28;20257;-73
2022/11/17 03:46:53;;;;;;;;;;;19.80;47.10;;;;;;5034494;28;19939;-72
2022/11/17 03:49:21;;;;;;;;;;;19.80;47.10;;;;;;5036347;28;20262;-72
2022/11/17 03:51:47;;;;;;;;;;;19.80;47.30;;;;;;5051518;28;19920;-73
2022/11/17 03:54:13;;;;;;;;;;;19.80;47.10;;;;;;5034843;28;19913;-73
2022/11/17 03:56:48;;;;;;;;;;;19.80;47.10;;;;;;5034220;28;19921;-72
2022/11/17 03:59:17;;;;;;;;;;;19.80;47.10;;;;;;5027444;28;20281;-72
2022/11/17 04:01:43;;;;;;;;;;;19.80;47.00;;;;;;5033318;28;19913;-71
2022/11/17 04:04:13;;;;;;;;;;;19.80;47.10;;;;;;5052270;28;19961;-72
2022/11/17 04:06:38;;;;;;;;;;;19.70;47.00;;;;;;5035388;28;19917;-71
2022/11/17 04:09:03;;;;;;;;;;;19.70;47.00;;;;;;5053802;28;19974;-71
2022/11/17 04:16:57;;;;;;;;;;;19.70;47.10;;;;;;5053785;28;20284;-72
2022/11/17 04:19:23;;;;;;;;;;;19.60;47.00;;;;;;5052964;28;19917;-72
2022/11/17 04:21:48;;;;;;;;;;;19.60;47.00;;;;;;5035512;28;19917;-72
2022/11/17 04:24:14;;;;;;;;;;;19.60;47.10;;;;;;5053170;28;20010;-71
2022/11/17 04:29:23;;;;;;;;;;;19.60;47.10;;;;;;5051594;28;19919;-73
2022/11/17 04:31:49;;;;;;;;;;;19.60;47.00;;;;;;5051227;28;20011;-72
2022/11/17 04:34:14;;;;;;;;;;;19.50;47.00;;;;;;5036392;28;19913;-71
2022/11/17 04:36:43;;;;;;;;;;;19.60;47.10;;;;;;5031675;28;19928;-72
2022/11/17 04:39:08;;;;;;;;;;;19.60;47.00;;;;;;5036824;28;20006;-71
2022/11/17 04:41:52;;;;;;;;;;;19.60;47.00;;;;;;5036434;28;20380;-71
2022/11/17 04:44:18;;;;;;;;;;;19.60;47.00;;;;;;5053429;28;19917;-71
2022/11/17 04:46:44;;;;;;;;;;;19.50;46.90;;;;;;5034633;28;19955;-71
2022/11/17 04:49:10;;;;;;;;;;;19.50;46.90;;;;;;5038410;28;19923;-72
2022/11/17 04:51:35;;;;;;;;;;;19.50;46.80;;;;;;5050886;28;19917;-72
2022/11/17 04:54:01;;;;;;;;;;;19.60;46.90;;;;;;5053724;28;19932;-72
2022/11/17 04:56:27;;;;;;;;;;;19.60;46.90;;;;;;5052468;28;19913;-73
2022/11/17 04:58:53;;;;;;;;;;;19.50;46.80;;;;;;5034656;28;20431;-73
2022/11/17 05:01:18;;;;;;;;;;;19.50;46.80;;;;;;5033727;28;19924;-71
2022/11/17 05:03:51;;;;;;;;;;;19.50;46.90;;;;;;5051244;28;19913;-72
2022/11/17 05:06:17;;;;;;;;;;;19.50;46.80;;;;;;5032767;28;19913;-71
2022/11/17 05:08:43;;;;;;;;;;;19.40;46.80;;;;;;5032709;28;19913;-72
2022/11/17 05:13:53;;;;;;;;;;;19.40;46.90;;;;;;5028511;28;19934;-72
2022/11/17 05:19:03;;;;;;;;;;;19.40;46.90;;;;;;5041585;28;19916;-72
2022/11/17 05:21:28;;;;;;;;;;;19.40;46.90;;;;;;5050632;28;20365;-72
2022/11/17 05:23:54;;;;;;;;;;;19.40;46.80;;;;;;5035708;28;19916;-71
2022/11/17 05:26:20;;;;;;;;;;;19.40;46.70;;;;;;5031616;28;19913;-70
2022/11/17 05:28:45;;;;;;;;;;;19.40;46.80;;;;;;5050041;28;19913;-72
2022/11/17 05:31:11;;;;;;;;;;;19.40;46.70;;;;;;5054092;28;19923;-72
2022/11/17 05:33:36;;;;;;;;;;;19.40;46.80;;;;;;5053408;28;19999;-72
2022/11/17 05:36:02;;;;;;;;;;;19.40;46.70;;;;;;5028619;28;19913;-71
2022/11/17 05:38:27;;;;;;;;;;;19.40;46.70;;;;;;5023284;28;19913;-71
2022/11/17 05:40:53;;;;;;;;;;;19.40;46.60;;;;;;5024012;28;20016;-72
2022/11/17 05:43:18;;;;;;;;;;;19.40;46.60;;;;;;5049105;28;19921;-72
2022/11/17 05:45:44;;;;;;;;;;;19.40;46.50;;;;;;5035173;28;19909;-72
2022/11/17 05:48:09;;;;;;;;;;;19.40;46.50;;;;;;5050733;28;19908;-72
2022/11/17 05:50:35;;;;;;;;;;;19.40;46.50;;;;;;5049907;28;19913;-71
2022/11/17 05:53:00;;;;;;;;;;;19.40;46.40;;;;;;5047691;28;20393;-72
2022/11/17 05:55:26;;;;;;;;;;;19.50;46.40;;;;;;5051947;28;20324;-72
2022/11/17 05:57:51;;;;;;;;;;;19.50;46.40;;;;;;5051490;28;19963;-72
2022/11/17 06:00:17;;;;;;;;;;;19.50;46.30;;;;;;5044201;28;20004;-73
2022/11/17 06:02:43;;;;;;;;;;;19.50;46.30;;;;;;5042892;28;19913;-72
2022/11/17 06:05:09;;;;;;;;;;;19.50;46.20;;;;;;5016750;28;19916;-73
2022/11/17 06:07:35;;;;;;;;;;;19.50;46.20;;;;;;5030036;28;19916;-73
2022/11/17 06:10:00;;;;;;;;;;;19.50;46.30;;;;;;5033947;28;19920;-72
2022/11/17 06:12:25;;;;;;;;;;;19.40;46.20;;;;;;5031344;28;19919;-72
2022/11/17 06:14:51;;;;;;;;;;;19.50;46.20;;;;;;5051855;28;20011;-73
2022/11/17 06:17:21;;;;;;;;;;;19.40;46.20;;;;;;5049413;28;19913;-72
2022/11/17 06:19:50;;;;;;;;;;;19.40;46.20;;;;;;5050040;28;19948;-72
2022/11/17 06:22:15;;;;;;;;;;;19.40;46.20;;;;;;5050513;28;19919;-71
2022/11/17 06:24:42;;;;;;;;;;;19.40;46.10;;;;;;5050316;28;20316;-71
2022/11/17 06:27:08;;;;;;;;;;;19.40;46.20;;;;;;5050112;28;19913;-72
2022/11/17 06:29:33;;;;;;;;;;;19.40;46.20;;;;;;5048752;28;19917;-71
2022/11/17 06:31:59;;;;;;;;;;;19.40;46.20;;;;;;5052322;28;19931;-71
2022/11/17 06:34:24;;;;;;;;;;;19.30;46.10;;;;;;5023589;28;20035;-71
2022/11/17 06:36:52;;;;;;;;;;;19.30;46.20;;;;;;5024265;28;19925;-72
2022/11/17 06:39:17;;;;;;;;;;;19.30;46.10;;;;;;5048447;28;20292;-72
2022/11/17 06:41:43;;;;;;;;;;;19.30;46.00;;;;;;5033244;28;19917;-72
2022/11/17 06:44:08;;;;;;;;;;;19.40;46.10;;;;;;5049968;28;20442;-73
2022/11/17 06:46:36;;;;;;;;;;;19.40;46.10;;;;;;5051419;28;20391;-72
2022/11/17 06:49:03;;;;;;;;;;;19.40;46.00;;;;;;5032428;28;19921;-72
2022/11/17 06:51:28;;;;;;;;;;;19.40;45.90;;;;;;5049481;28;19917;-73
2022/11/17 06:53:54;;;;;;;;;;;19.40;46.00;;;;;;5050049;28;19912;-72
2022/11/17 06:56:19;;;;;;;;;;;19.40;46.00;;;;;;5049585;28;19921;-72
2022/11/17 06:58:45;;;;;;;;;;;19.30;45.90;;;;;;5014746;28;20349;-71
2022/11/17 07:01:11;;;;;;;;;;;19.30;45.90;;;;;;5046289;28;20392;-72
2022/11/17 07:03:37;;;;;;;;;;;19.30;45.90;;;;;;5030317;28;20280;-72
2022/11/17 07:06:03;;;;;;;;;;;19.30;45.90;;;;;;5031712;28;20373;-71
2022/11/17 07:08:28;;;;;;;;;;;19.30;45.80;;;;;;5030835;28;19913;-71
2022/11/17 07:10:54;;;;;;;;;;;19.30;45.80;;;;;;5033514;28;19942;-72
2022/11/17 07:13:20;;;;;;;;;;;19.30;45.90;;;;;;5049377;28;20396;-72
2022/11/17 07:15:48;;;;;;;;;;;19.30;46.50;;;;;;5045920;28;20260;-72
2022/11/17 07:18:14;;;;;;;;;;;19.30;45.90;;;;;;5028637;28;19954;-70
2022/11/17 07:20:39;;;;;;;;;;;19.20;45.80;;;;;;5033252;28;20046;-71
2022/11/17 07:23:05;;;;;;;;;;;19.30;45.80;;;;;;5050415;28;20416;-72
2022/11/17 07:25:30;;;;;;;;;;;19.30;46.50;;;;;;5014293;28;19946;-70
2022/11/17 07:27:56;;;;;;;;;;;19.30;46.00;;;;;;5049480;28;20012;-72
2022/11/17 07:30:22;;;;;;;;;;;19.30;46.40;;;;;;5050974;28;19916;-72
2022/11/17 07:32:47;;;;;;;;;;;19.30;45.70;;;;;;5044222;28;19921;-72
2022/11/17 07:35:13;;;;;;;;;;;19.30;45.80;;;;;;5025653;28;19921;-72
2022/11/17 07:37:38;;;;;;;;;;;19.30;45.90;;;;;;5008148;28;19925;-71
2022/11/17 07:40:04;;;;;;;;;;;19.30;45.90;;;;;;5032310;28;19920;-72
2022/11/17 07:42:29;;;;;;;;;;;19.30;45.80;;;;;;5048481;28;19920;-72
2022/11/17 07:44:55;;;;;;;;;;;19.30;45.80;;;;;;5050686;28;19913;-71
2022/11/17 07:47:20;;;;;;;;;;;19.30;45.80;;;;;;5030634;28;19959;-72
2022/11/17 07:49:46;;;;;;;;;;;19.30;45.80;;;;;;5045002;28;19931;-72
2022/11/17 07:52:11;;;;;;;;;;;19.30;45.80;;;;;;5051363;28;19920;-72
2022/11/17 07:54:36;;;;;;;;;;;19.30;45.80;;;;;;5051548;28;20367;-72
2022/11/17 07:57:02;;;;;;;;;;;19.30;45.80;;;;;;5046033;28;20329;-72
2022/11/17 07:59:27;;;;;;;;;;;19.30;46.50;;;;;;5051159;28;19913;-72
2022/11/17 08:01:53;;;;;;;;;;;19.30;45.90;;;;;;5032933;28;19917;-72
2022/11/17 08:04:19;;;;;;;;;;;19.30;45.90;;;;;;5043190;28;19913;-72
2022/11/17 08:06:44;;;;;;;;;;;19.20;45.90;;;;;;5054198;28;19912;-72
2022/11/17 08:09:12;;;;;;;;;;;19.20;46.00;;;;;;5055680;28;19913;-72
2022/11/17 08:11:38;;;;;;;;;;;19.20;46.00;;;;;;5054304;28;19940;-71
2022/11/17 08:14:04;;;;;;;;;;;19.20;46.00;;;;;;5051151;28;20402;-72
2022/11/17 08:16:29;;;;;;;;;;;19.20;48.20;;;;;;5052758;28;20426;-72
2022/11/17 08:18:57;;;;;;;;;;;19.20;46.30;;;;;;5055546;28;19913;-71
2022/11/17 08:21:23;;;;;;;;;;;19.10;46.00;;;;;;5047949;28;19913;-72
2022/11/17 08:23:50;;;;;;;;;;;19.20;46.00;;;;;;5032626;28;20007;-71
2022/11/17 08:26:15;;;;;;;;;;;19.10;45.90;;;;;;5053493;28;19913;-72
2022/11/17 08:28:40;;;;;;;;;;;19.10;46.10;;;;;;5032838;28;19912;-71
2022/11/17 08:31:06;;;;;;;;;;;19.20;46.40;;;;;;5053630;28;19920;-72
2022/11/17 08:33:31;;;;;;;;;;;19.30;46.40;;;;;;5054453;28;19952;-72
2022/11/17 08:36:00;;;;;;;;;;;19.50;46.00;;;;;;5049454;28;19921;-73
2022/11/17 08:38:29;;;;;;;;;;;19.80;45.60;;;;;;5030980;28;20323;-72
2022/11/17 08:40:57;;;;;;;;;;;20.10;45.10;;;;;;5051977;28;19962;-72
2022/11/17 08:43:23;;;;;;;;;;;20.40;44.70;;;;;;5037342;28;19919;-71
2022/11/17 08:45:49;;;;;;;;;;;20.60;44.80;;;;;;5053661;28;19920;-72
2022/11/17 08:48:14;;;;;;;;;;;20.70;44.50;;;;;;5048894;28;20383;-72
2022/11/17 08:50:39;;;;;;;;;;;20.90;44.40;;;;;;5053955;28;19913;-73
2022/11/17 08:53:05;;;;;;;;;;;21.00;44.40;;;;;;5053578;28;19921;-73
2022/11/17 08:55:30;;;;;;;;;;;21.10;44.40;;;;;;5053381;28;20369;-72
2022/11/17 08:57:56;;;;;;;;;;;21.20;44.30;;;;;;5034189;28;20426;-72
2022/11/17 09:00:22;;;;;;;;;;;21.30;44.30;;;;;;5028306;28;19960;-73
2022/11/17 09:02:47;;;;;;;;;;;21.30;44.10;;;;;;5049082;28;19916;-72
2022/11/17 09:05:13;;;;;;;;;;;21.40;43.80;;;;;;5030212;28;19914;-72
2022/11/17 09:07:38;;;;;;;;;;;21.40;43.80;;;;;;5035818;28;20023;-73
2022/11/17 09:10:04;;;;;;;;;;;21.40;43.80;;;;;;5050677;28;20399;-72
2022/11/17 09:12:29;;;;;;;;;;;21.40;43.80;;;;;;5052623;28;19919;-73
2022/11/17 09:14:55;;;;;;;;;;;21.40;43.80;;;;;;5046956;28;19925;-73
2022/11/17 09:17:20;;;;;;;;;;;21.50;44.00;;;;;;5048058;28;20009;-72
2022/11/17 09:19:46;;;;;;;;;;;21.50;43.90;;;;;;5050267;28;19931;-72
2022/11/17 09:22:11;;;;;;;;;;;21.50;44.00;;;;;;5049539;28;20051;-72
2022/11/17 09:24:37;;;;;;;;;;;21.50;44.00;;;;;;5029674;28;20003;-72
2022/11/17 09:27:02;;;;;;;;;;;21.60;44.00;;;;;;5053083;28;20214;-73
2022/11/17 09:29:28;;;;;;;;;;;21.50;43.90;;;;;;5050706;28;19917;-73
2022/11/17 09:31:54;;;;;;;;;;;21.60;43.90;;;;;;5048934;28;19924;-72
2022/11/17 09:34:19;;;;;;;;;;;21.70;43.90;;;;;;5052447;28;19993;-72
2022/11/17 09:36:47;;;;;;;;;;;21.70;43.80;;;;;;5032794;28;19968;-72
2022/11/17 09:39:13;;;;;;;;;;;21.70;43.80;;;;;;5048233;28;19941;-72
2022/11/17 09:41:42;;;;;;;;;;;21.70;43.70;;;;;;5052616;28;20279;-73
2022/11/17 09:44:17;;;;;;;;;;;21.80;43.60;;;;;;5034138;28;20377;-73
2022/11/17 09:46:55;;;;;;;;;;;21.80;43.60;;;;;;5016079;28;20289;-72
2022/11/17 09:49:25;;;;;;;;;;;21.80;43.70;;;;;;5044138;28;21285;-74
2022/11/17 09:51:50;;;;;;;;;;;21.80;43.60;;;;;;5046048;28;20412;-73
2022/11/17 09:54:36;;;;;;;;;;;21.90;43.60;;;;;;5036918;28;19912;-73
2022/11/17 09:57:01;;;;;;;;;;;21.90;43.70;;;;;;5037737;28;19919;-72
2022/11/17 09:59:27;;;;;;;;;;;21.90;43.70;;;;;;5033847;28;20380;-72
2022/11/17 10:01:52;;;;;;;;;;;21.90;43.70;;;;;;5034488;28;20384;-72
2022/11/17 10:04:18;;;;;;;;;;;21.90;43.60;;;;;;5033847;28;19928;-72
2022/11/17 10:06:43;;;;;;;;;;;21.90;43.70;;;;;;5032032;28;19924;-73
2022/11/17 10:09:24;;;;;;;;;;;21.90;44.30;;;;;;5050784;28;19913;-72
2022/11/17 10:11:50;;;;;;;;;;;21.90;43.70;;;;;;5053503;28;19913;-71
2022/11/17 10:14:16;;;;;;;;;;;21.90;43.70;;;;;;5033199;28;19913;-72
2022/11/17 10:16:49;;;;;;;;;;;21.90;43.80;;;;;;5050818;28;20404;-73
2022/11/17 10:19:23;;;;;;;;;;;21.90;43.80;;;;;;5036107;28;19913;-72
2022/11/17 10:22:08;;;;;;;;;;;21.90;43.70;;;;;;5034945;28;20388;-73
2022/11/17 10:24:37;;;;;;;;;;;21.90;43.70;;;;;;5035247;28;19951;-72
2022/11/17 10:27:04;;;;;;;;;;;21.90;43.70;;;;;;5053989;28;19952;-72
2022/11/17 10:29:30;;;;;;;;;;;21.90;43.70;;;;;;5050457;28;19924;-73
2022/11/17 10:31:56;;;;;;;;;;;22.00;43.80;;;;;;5052513;28;19917;-72
2022/11/17 10:34:34;;;;;;;;;;;21.90;43.70;;;;;;5049504;28;20413;-72
2022/11/17 10:37:23;;;;;;;;;;;21.90;43.70;;;;;;5032445;28;19960;-72
2022/11/17 10:39:49;;;;;;;;;;;22.00;43.80;;;;;;5038650;28;20388;-72
2022/11/17 10:42:26;;;;;;;;;;;22.00;43.80;;;;;;5045135;28;19924;-71
2022/11/17 10:44:53;;;;;;;;;;;22.00;43.70;;;;;;5037918;28;20680;-72
2022/11/17 10:47:38;;;;;;;;;;;22.00;43.70;;;;;;5031802;28;20451;-72
2022/11/17 10:50:16;;;;;;;;;;;22.00;43.70;;;;;;5023423;28;20400;-72
2022/11/17 10:52:41;;;;;;;;;;;22.00;43.70;;;;;;5035058;28;19916;-72
2022/11/17 10:55:16;;;;;;;;;;;22.00;43.80;;;;;;5050978;28;20852;-73
2022/11/17 10:57:42;;;;;;;;;;;22.00;43.80;;;;;;5050242;28;20429;-72
2022/11/17 11:00:11;;;;;;;;;;;22.10;43.70;;;;;;5033110;28;19966;-72
2022/11/17 11:02:37;;;;;;;;;;;22.00;43.70;;;;;;5051539;28;20395;-71
2022/11/17 11:05:07;;;;;;;;;;;22.00;43.60;;;;;;5032189;28;19916;-71
2022/11/17 11:07:32;;;;;;;;;;;22.00;43.70;;;;;;5049489;28;19925;-72
2022/11/17 11:10:17;;;;;;;;;;;22.00;43.80;;;;;;5050651;28;20011;-72
2022/11/17 11:12:49;;;;;;;;;;;22.00;43.80;;;;;;5025477;28;19925;-72
2022/11/17 11:15:15;;;;;;;;;;;22.00;43.90;;;;;;5046329;28;19920;-72
2022/11/17 11:17:41;;;;;;;;;;;22.00;43.90;;;;;;5052308;28;19909;-71
2022/11/17 11:20:06;;;;;;;;;;;22.00;43.80;;;;;;5049392;28;19975;-72
2022/11/17 11:22:32;;;;;;;;;;;22.10;43.90;;;;;;5012813;28;19924;-72
2022/11/17 11:25:03;;;;;;;;;;;22.10;44.00;;;;;;5045797;28;19974;-72
2022/11/17 11:27:38;;;;;;;;;;;22.10;43.90;;;;;;5031398;28;20411;-72
2022/11/17 11:30:04;;;;;;;;;;;22.10;43.80;;;;;;5035805;28;19912;-72
2022/11/17 11:32:29;;;;;;;;;;;22.10;43.80;;;;;;5038881;28;19909;-72
2022/11/17 11:34:55;;;;;;;;;;;22.10;43.70;;;;;;5043895;28;19924;-72
2022/11/17 11:37:21;;;;;;;;;;;22.10;43.80;;;;;;5050571;28;19921;-72
2022/11/17 11:40:07;;;;;;;;;;;22.10;43.80;;;;;;5035363;28;19913;-72
2022/11/17 11:42:43;;;;;;;;;;;22.20;43.90;;;;;;5040442;28;19917;-72
2022/11/17 11:45:15;;;;;;;;;;;22.20;43.90;;;;;;5051941;28;19930;-72
2022/11/17 11:47:50;;;;;;;;;;;22.20;43.90;;;;;;5036867;28;19916;-72
2022/11/17 11:50:41;;;;;;;;;;;22.20;43.80;;;;;;5057282;28;19913;-72
2022/11/17 11:53:18;;;;;;;;;;;22.20;43.80;;;;;;5036789;28;20400;-72
2022/11/17 11:55:45;;;;;;;;;;;22.20;43.80;;;;;;5035938;28;19964;-72
2022/11/17 11:58:13;;;;;;;;;;;22.20;43.80;;;;;;5037259;28;20543;-72
2022/11/17 12:00:39;;;;;;;;;;;22.20;43.80;;;;;;5032956;28;19963;-72
2022/11/17 12:03:24;;;;;;;;;;;22.20;43.90;;;;;;5032921;28;19916;-75
2022/11/17 12:06:38;;;;;;;;;;;22.20;43.90;;;;;;5033291;28;19917;-73
2022/11/17 12:08:48;;;;;;;;;;;22.20;43.90;;;;;;5036514;28;20408;-74
2022/11/17 12:13:57;;;;;;;;;;;22.20;44.20;;;;;;5037861;28;19966;-73
2022/11/17 12:16:26;;;;;;;;;;;22.20;44.30;;;;;;5035640;28;19920;-72
2022/11/17 12:18:52;;;;;;;;;;;22.20;44.30;;;;;;5034993;28;20374;-74
2022/11/17 12:21:22;;;;;;;;;;;22.20;44.40;;;;;;5031932;28;20020;-74
2022/11/17 12:24:06;;;;;;;;;;;22.20;44.40;;;;;;5035691;28;20351;-73
2022/11/17 12:26:31;;;;;;;;;;;22.10;44.30;;;;;;5050553;28;19948;-73
2022/11/17 12:29:16;;;;;;;;;;;22.20;44.40;;;;;;5033706;28;19948;-73
2022/11/17 12:31:42;;;;;;;;;;;22.20;44.30;;;;;;5038251;28;19913;-72
2022/11/17 12:34:17;;;;;;;;;;;22.20;44.30;;;;;;5035500;28;19919;-72
2022/11/17 12:36:43;;;;;;;;;;;22.20;44.30;;;;;;5029770;28;19939;-72
2022/11/17 12:39:28;;;;;;;;;;;22.20;44.40;;;;;;5054989;28;19912;-72
2022/11/17 12:42:03;;;;;;;;;;;22.20;44.40;;;;;;5042774;28;20338;-72
2022/11/17 12:44:35;;;;;;;;;;;22.20;44.40;;;;;;5054083;28;20369;-73
2022/11/17 12:47:05;;;;;;;;;;;22.20;44.40;;;;;;5052757;28;20029;-72
2022/11/17 12:49:33;;;;;;;;;;;22.20;44.40;;;;;;5050384;28;20001;-73
2022/11/17 12:52:00;;;;;;;;;;;22.30;45.10;;;;;;5035697;28;20059;-72
2022/11/17 12:54:42;;;;;;;;;;;22.30;44.40;;;;;;5031536;28;19913;-72
2022/11/17 12:57:16;;;;;;;;;;;22.20;44.30;;;;;;5040625;28;19985;-73
2022/11/17 12:59:48;;;;;;;;;;;22.30;44.40;;;;;;5033014;28;19920;-72
2022/11/17 13:02:19;;;;;;;;;;;22.30;44.40;;;;;;5049554;28;19982;-72
2022/11/17 13:04:47;;;;;;;;;;;22.30;44.40;;;;;;5037921;28;19968;-73
2022/11/17 13:07:17;;;;;;;;;;;22.30;44.30;;;;;;5022425;28;19921;-72
2022/11/17 13:09:42;;;;;;;;;;;22.30;44.30;;;;;;5041037;28;19999;-72
2022/11/17 13:12:08;;;;;;;;;;;22.30;44.30;;;;;;5050864;28;19952;-73
2022/11/17 13:14:34;;;;;;;;;;;22.30;44.30;;;;;;5011605;28;19912;-73
2022/11/17 13:17:00;;;;;;;;;;;22.30;44.30;;;;;;5034321;28;19913;-73
2022/11/17 13:19:25;;;;;;;;;;;22.30;44.30;;;;;;5036355;28;19913;-72
2022/11/17 13:21:56;;;;;;;;;;;22.30;44.40;;;;;;5050944;28;19959;-73
2022/11/17 13:24:30;;;;;;;;;;;22.30;44.40;;;;;;5029223;28;20380;-72
2022/11/17 13:26:59;;;;;;;;;;;22.30;44.40;;;;;;5030660;28;20354;-74
2022/11/17 13:29:25;;;;;;;;;;;22.30;44.30;;;;;;5051188;28;19963;-72
2022/11/17 13:32:03;;;;;;;;;;;22.40;44.40;;;;;;5037730;28;19916;-72
2022/11/17 13:34:29;;;;;;;;;;;22.30;44.30;;;;;;5050966;28;19928;-73
2022/11/17 13:36:58;;;;;;;;;;;22.30;44.30;;;;;;5031237;28;19931;-72
2022/11/17 13:39:25;;;;;;;;;;;22.30;44.30;;;;;;5035994;28;20262;-73
2022/11/17 13:41:51;;;;;;;;;;;22.30;44.40;;;;;;5047143;28;20398;-72
2022/11/17 13:44:21;;;;;;;;;;;22.40;44.40;;;;;;5038108;28;20035;-73
2022/11/17 13:46:47;;;;;;;;;;;22.30;44.30;;;;;;5052474;28;19919;-73
2022/11/17 13:49:31;;;;;;;;;;;22.40;44.30;;;;;;5049694;28;20356;-72
2022/11/17 13:51:56;;;;;;;;;;;22.40;44.30;;;;;;5031888;28;19917;-74
2022/11/17 13:54:22;;;;;;;;;;;22.40;44.30;;;;;;5052790;28;19921;-73
2022/11/17 13:56:51;;;;;;;;;;;22.40;44.30;;;;;;5031703;28;20015;-72
2022/11/17 13:59:17;;;;;;;;;;;22.40;44.30;;;;;;5031000;28;19913;-73
2022/11/17 14:01:42;;;;;;;;;;;22.40;44.30;;;;;;5050282;28;20274;-73
2022/11/17 14:04:17;;;;;;;;;;;22.40;44.20;;;;;;5041093;28;19913;-73
2022/11/17 14:06:53;;;;;;;;;;;22.40;44.30;;;;;;5029198;28;19917;-73
2022/11/17 14:09:18;;;;;;;;;;;22.40;44.30;;;;;;5046411;28;20015;-72
2022/11/17 14:11:44;;;;;;;;;;;22.40;44.30;;;;;;5031733;28;19913;-73
2022/11/17 14:14:12;;;;;;;;;;;22.40;44.30;;;;;;5030680;28;20447;-73
2022/11/17 14:16:38;;;;;;;;;;;22.40;44.20;;;;;;5033893;28;20633;-73
2022/11/17 14:19:16;;;;;;;;;;;22.40;44.20;;;;;;5029915;28;20019;-73
2022/11/17 14:21:58;;;;;;;;;;;22.40;44.20;;;;;;5051426;28;20058;-73
2022/11/17 14:24:23;;;;;;;;;;;22.40;44.30;;;;;;5029834;28;19920;-74
2022/11/17 14:26:49;;;;;;;;;;;22.40;44.20;;;;;;5048158;28;19924;-71
2022/11/17 14:29:14;;;;;;;;;;;22.40;44.30;;;;;;5049003;28;19924;-72
2022/11/17 14:31:40;;;;;;;;;;;22.50;44.10;;;;;;5052126;28;20019;-72
2022/11/17 14:34:05;;;;;;;;;;;22.60;44.00;;;;;;5049443;28;19924;-73
2022/11/17 14:36:31;;;;;;;;;;;22.60;44.00;;;;;;5043644;28;20028;-73
2022/11/17 14:38:56;;;;;;;;;;;22.60;44.50;;;;;;5050649;28;20561;-73
2022/11/17 14:41:22;;;;;;;;;;;22.70;43.90;;;;;;5056289;28;19917;-72
2022/11/17 14:43:47;;;;;;;;;;;22.70;43.80;;;;;;5050492;28;19944;-73
2022/11/17 14:46:19;;;;;;;;;;;22.70;43.80;;;;;;5035714;28;19920;-73